Manton, CA (96059)

8:46 PM PST on December 24, 2014 (GMT -0800)
Shingletown Black Butte Area | Change Station
CLOSE
Current Station
Personal Weather Station
Location: Lower Shingletown /Manton, CA
Elevation: 2113 ft
Nearby Weather Stations

Elev 2113 ft 40.48 °N, 121.99 °W | Updated 1 minute ago

Partly Cloudy
Partly Cloudy
40.1 °F
Feels Like 35 °F
N
6.9
Wind Variable Wind from NE
Gusts 13.6 mph

Today
High -- | Low -- °F
--% Chance of Precip.
Yesterday
High -- | Low -- °F
Precip. -- in
7:28 AM 4:45 PM
Waxing Crescent, 13% visible
Pressure 30.03 in
Visibility 10.0 miles
Clouds Clear
Windchill 35 °F
Dew Point 25 °F
Humidity 55%
Rainfall 0.12 in
Snow Depth Not available.
UV 0 out of 12
Pollen 2.20 out of 12
Air Quality Not available.
Flu Activity Not available.
METAR KRDD 250353Z 32004KT 10SM CLR 08/01 A3003 RMK AO2 SLP167 T00780011

More Conditions Fewer Conditions

Pressure 30.03 in
Visibility 10.0 miles
Clouds Clear
Windchill 35 °F
Dew Point 25 °F
Humidity 55%
Rainfall 0.12 in
Snow Depth Not available.
UV 0 out of 12
Pollen 2.20 out of 12
Air Quality Not available.
Flu Activity Not available.
METAR KRDD 250353Z 32004KT 10SM CLR 08/01 A3003 RMK AO2 SLP167 T00780011

More Conditions Fewer Conditions

10-Day Weather Forecast

Almanac

Astronomy

Dec. 24, 2014 Rise Set
Actual Time
Civil Twilight
Nautical Twilight
Astronomical Twilight
Moon
Length of Visible Light
Length of Day
Tomorrow will be .
, % of the Moon is Illuminated

Today's Extremes

State Highs State Lows

Community

WunderPhotos

Upload Photos

1,780,238 photos uploaded!

WunderBlogs® & News

Nearby

Air Quality

  Air Quality AQ Index Pollutant
Not available.

Snow Depth

Station Depth Elevation

Earthquake Activity

City Distance Mag. Time & Date
Minimum magnitude displayed is 2.5.

Coastal Water Temperatures

Place Temperature

Nearby Weather Stations